Wetterstation Vordersexau
Wetterdaten: Mai 2017
Datum Temp. A. Feuchte A. Luftdruck Regen Wind Richtung Taupunkt Windchill Windben
01.05.2017 8,9 C 77 % 1010,5 hPa 4,1 l/m 7,3 km/h SW 4,9 C 6,7 C 4,0 km/h
02.05.2017 12,6 C 66 % 1013,3 hPa 0,0 l/m 2,6 km/h W 5,9 C 12,1 C 1,5 km/h
03.05.2017 13,3 C 69 % 1014,5 hPa 1,0 l/m 0,1 km/h SO 7,2 C 13,3 C 0,1 km/h
04.05.2017 11,7 C 75 % 1013,1 hPa 4,7 l/m 0,8 km/h O-SO 7,2 C 11,5 C 0,4 km/h
05.05.2017 15,3 C 65 % 1014,2 hPa 0,0 l/m 0,3 km/h N 8,0 C 15,3 C 0,2 km/h
06.05.2017 11,1 C 79 % 1008,6 hPa 11,4 l/m 1,7 km/h SO 7,6 C 10,8 C 0,9 km/h
07.05.2017 12,0 C 80 % 1012,8 hPa 8,3 l/m 11,9 km/h SW 8,7 C 9,1 C 6,6 km/h
08.05.2017 9,9 C 79 % 1015,9 hPa 4,7 l/m 0,3 km/h W 6,4 C 9,9 C 0,2 km/h
09.05.2017 11,6 C 69 % 1014,5 hPa 0,0 l/m 0,9 km/h N-NW 5,7 C 11,5 C 0,5 km/h
10.05.2017 15,3 C 59 % 1005,7 hPa 0,0 l/m 0,2 km/h O-SO 6,0 C 15,3 C 0,1 km/h
11.05.2017 16,0 C 70 % 998,6 hPa 0,0 l/m 1,3 km/h O-SO 10,3 C 15,9 C 0,7 km/h
12.05.2017 17,0 C 69 % 1002,0 hPa 0,0 l/m 2,6 km/h S 10,8 C 16,6 C 1,5 km/h
13.05.2017 17,2 C 69 % 1010,4 hPa 0,0 l/m 3,9 km/h S-SO 10,8 C 16,7 C 2,2 km/h
14.05.2017 17,2 C 72 % 1019,8 hPa 4,1 l/m 0,8 km/h W-NW 11,6 C 17,1 C 0,5 km/h
15.05.2017 18,8 C 61 % 1026,1 hPa 1,6 l/m 0,5 km/h O-SO 10,2 C 18,8 C 0,3 km/h
16.05.2017 19,8 C 61 % 1024,7 hPa 0,0 l/m 1,6 km/h N-NO 11,0 C 19,7 C 0,9 km/h
17.05.2017 22,2 C 57 % 1016,8 hPa 0,0 l/m 0,3 km/h O-NO 12,1 C 22,2 C 0,2 km/h
18.05.2017 19,4 C 69 % 1010,4 hPa 0,0 l/m 0,9 km/h O-NO 13,4 C 19,3 C 0,5 km/h
19.05.2017 11,6 C 79 % 1012,0 hPa 45,6 l/m 3,4 km/h W 8,1 C 10,8 C 1,9 km/h
20.05.2017 12,1 C 69 % 1020,0 hPa 0,0 l/m 0,4 km/h O-SO 6,2 C 12,0 C 0,2 km/h
21.05.2017 16,3 C 62 % 1021,4 hPa 0,0 l/m 1,6 km/h SO 8,0 C 16,1 C 0,9 km/h
22.05.2017 19,1 C 61 % 1015,3 hPa 0,0 l/m 0,5 km/h O-NO 10,2 C 19,1 C 0,3 km/h
23.05.2017 21,1 C 62 % 1016,4 hPa 0,0 l/m 1,5 km/h SO 12,6 C 21,1 C 0,9 km/h
24.05.2017 20,2 C 59 % 1020,5 hPa 0,0 l/m 1,0 km/h N-NO 11,1 C 20,2 C 0,5 km/h
25.05.2017 20,2 C 61 % 1018,1 hPa 0,0 l/m 3,5 km/h N-NO 12,0 C 20,0 C 2,0 km/h
26.05.2017 21,9 C 55 % 1015,3 hPa 0,0 l/m 0,8 km/h W 11,2 C 21,9 C 0,4 km/h
27.05.2017 24,1 C 55 % 1015,4 hPa 0,0 l/m 0,5 km/h W 13,3 C 24,1 C 0,3 km/h
28.05.2017 26,4 C 57 % 1015,0 hPa 0,0 l/m 0,5 km/h O-NO 16,2 C 26,4 C 0,3 km/h
29.05.2017 26,9 C 56 % 1011,9 hPa 0,0 l/m 1,4 km/h O-SO 16,1 C 26,9 C 0,8 km/h
30.05.2017 22,7 C 68 % 1013,2 hPa 3,6 l/m 3,0 km/h O-SO 15,7 C 22,6 C 1,7 km/h
31.05.2017 22,8 C 62 % 1017,5 hPa 0,0 l/m 2,5 km/h SO 14,6 C 22,7 C 1,4 km/h
Min-Datum 10.05.17 10.05.17 11.05.17 10 Tage 01.05.17 - 10.05.17 01.05.17 01.05.17
Min-Zeit 05:56 17:56 19:56 - 00:57 - 05:56 06:57 00:57
Minimum 1,9 C 21 % 995,4 hPa - 0,0 km/h - -0,2 C 0,2 C 0,0 km/h
Max-Datum 28.05.17 08.05.17 15.05.17 19.05.17 07.05.17 - 28.05.17 28.05.17 07.05.17
Max-Zeit 13:56 16:56 10:56 14:56 13:56 - 13:56 13:56 13:56
Maximum 39,6 C 86 % 1027,1 hPa 45,6 l/m 32,4 km/h
SW
- 19,8 C 39,6 C 18,0 km/h
SW
Durchschnitt 17,2 C 66 % 1014,3 hPa #89,1 l/m 1,9 km/h W 10,1 C 17,0 C 1,1 km/h

Durchschnitt Minimum Temp.9,1 C
Durchschnitt Maximum Temp.27,4 C
www.sexauwetter.de